Time;durP1;ratioP1;P1;durP2;ratioP2;P2;SDS_P1;SDS_P2;PMS_P1;PMS_P2;Temp;Humidity;BMP_temperature;BMP_pressure;BME280_temperature;BME280_humidity;BME280_pressure;Samples;Min_cycle;Max_cycle;Signal;HPM_P1;HPM_P2
2023/04/28 00:01:07;;;;;;;69.70;37.50;;;;;;;3.37;72.41;99223.31;224751;1283;24243;-74
2023/04/28 00:06:10;;;;;;;64.20;35.60;;;;;;;3.43;72.29;99223.15;224783;1282;22536;-73
2023/04/28 00:11:12;;;;;;;66.90;37.00;;;;;;;3.47;72.54;99222.77;224831;1281;22547;-73
2023/04/28 00:16:14;;;;;;;64.60;37.00;;;;;;;3.50;72.31;99221.84;224845;1283;22532;-73
2023/04/28 00:21:16;;;;;;;64.60;38.00;;;;;;;3.51;72.41;99216.33;224810;1283;22524;-73
2023/04/28 00:26:18;;;;;;;70.60;39.40;;;;;;;3.51;72.50;99215.08;224768;1284;22562;-73
2023/04/28 00:31:21;;;;;;;63.00;38.30;;;;;;;3.51;72.71;99211.64;224789;1284;22977;-74
2023/04/28 00:36:23;;;;;;;66.90;38.10;;;;;;;3.47;72.61;99214.05;224804;1280;22552;-74
2023/04/28 00:41:25;;;;;;;66.00;39.00;;;;;;;3.41;72.66;99212.13;224699;1283;22542;-73
2023/04/28 00:46:31;;;;;;;63.40;37.70;;;;;;;3.33;72.96;99212.34;224680;1280;22548;-73
2023/04/28 00:51:33;;;;;;;70.20;41.50;;;;;;;3.22;73.06;99207.88;224782;1282;22583;-74
2023/04/28 00:56:35;;;;;;;64.90;40.30;;;;;;;3.12;73.13;99208.35;224779;1283;22513;-74
2023/04/28 01:01:37;;;;;;;68.50;40.70;;;;;;;3.01;73.38;99206.76;224777;1283;22556;-73
2023/04/28 01:06:41;;;;;;;73.80;42.90;;;;;;;2.92;73.69;99205.98;224750;1283;22614;-73
2023/04/28 01:11:43;;;;;;;70.40;41.50;;;;;;;2.83;73.50;99205.63;224834;1283;22540;-73
2023/04/28 01:16:49;;;;;;;70.60;38.20;;;;;;;2.78;73.66;99204.35;224854;1279;22746;-74
2023/04/28 01:21:51;;;;;;;64.60;37.60;;;;;;;2.76;73.77;99213.88;224686;1282;22548;-74
2023/04/28 01:26:55;;;;;;;68.90;38.10;;;;;;;2.77;73.63;99207.53;224771;1279;22535;-74
2023/04/28 01:31:57;;;;;;;65.70;37.60;;;;;;;2.79;73.66;99206.34;224770;1283;22537;-74
2023/04/28 01:36:59;;;;;;;63.70;36.90;;;;;;;2.81;73.92;99210.52;224787;1283;22566;-74
2023/04/28 01:42:02;;;;;;;59.90;36.90;;;;;;;2.81;73.91;99214.70;224648;1283;22533;-73
2023/04/28 01:47:04;;;;;;;60.90;34.70;;;;;;;2.79;73.91;99212.60;224870;1279;24251;-72
2023/04/28 01:52:09;;;;;;;59.80;33.50;;;;;;;2.75;73.91;99213.75;224757;1280;22540;-72
2023/04/28 01:57:11;;;;;;;59.10;31.60;;;;;;;2.71;73.81;99214.32;224769;1281;22533;-73
2023/04/28 02:02:13;;;;;;;55.60;33.60;;;;;;;2.69;73.66;99209.80;224763;1283;22570;-72
2023/04/28 02:07:16;;;;;;;57.70;35.00;;;;;;;2.66;73.81;99201.84;224811;1283;22536;-72
2023/04/28 02:12:18;;;;;;;61.70;35.90;;;;;;;2.63;73.80;99198.33;224830;1283;22526;-73
2023/04/28 02:17:20;;;;;;;65.00;37.70;;;;;;;2.56;73.85;99200.80;224813;1283;22522;-73
2023/04/28 02:22:23;;;;;;;67.00;38.20;;;;;;;2.48;73.85;99199.35;224799;1283;22624;-72
2023/04/28 02:27:25;;;;;;;69.60;41.50;;;;;;;2.38;74.34;99197.38;224752;1273;22546;-73
2023/04/28 02:32:30;;;;;;;66.50;41.60;;;;;;;2.30;74.54;99194.02;224789;1283;24250;-73
2023/04/28 02:37:32;;;;;;;67.60;41.20;;;;;;;2.23;74.57;99191.20;224741;1283;24475;-73
2023/04/28 02:42:34;;;;;;;72.10;42.50;;;;;;;2.15;74.75;99188.71;224751;1283;22607;-73
2023/04/28 02:47:36;;;;;;;65.30;39.10;;;;;;;2.07;74.85;99191.45;224781;1283;22639;-73
2023/04/28 02:52:38;;;;;;;66.50;38.90;;;;;;;1.98;74.74;99190.73;224845;1277;25428;-73
2023/04/28 02:57:40;;;;;;;64.50;37.90;;;;;;;1.90;74.90;99185.89;224745;1282;22579;-73
2023/04/28 03:02:43;;;;;;;59.60;37.00;;;;;;;1.82;75.04;99191.52;224753;1283;22542;-73
2023/04/28 03:07:45;;;;;;;59.60;37.20;;;;;;;1.76;75.49;99194.25;224750;1281;22537;-73
2023/04/28 03:12:47;;;;;;;67.60;39.50;;;;;;;1.71;75.93;99197.83;224642;1283;24299;-73
2023/04/28 03:17:49;;;;;;;65.40;40.80;;;;;;;1.66;75.94;99191.24;224719;1283;22533;-73
2023/04/28 03:22:52;;;;;;;65.00;38.70;;;;;;;1.61;75.91;99191.30;224760;1280;22551;-73
2023/04/28 03:27:54;;;;;;;64.70;40.70;;;;;;;1.56;76.11;99192.61;224761;1280;22547;-72
2023/04/28 03:32:57;;;;;;;70.50;41.40;;;;;;;1.53;75.96;99191.06;224756;1277;22537;-73
2023/04/28 03:37:59;;;;;;;66.20;39.80;;;;;;;1.52;76.30;99190.11;224733;1280;24167;-73
2023/04/28 03:43:01;;;;;;;60.10;37.10;;;;;;;1.55;76.46;99182.28;224756;1283;24260;-73
2023/04/28 03:48:16;;;;;;;64.70;38.50;;;;;;;1.62;76.78;99179.77;224745;1277;25365;-73
2023/04/28 03:53:19;;;;;;;54.80;34.30;;;;;;;1.74;76.38;99177.06;224742;1280;22545;-73
2023/04/28 03:58:22;;;;;;;61.60;37.70;;;;;;;1.87;76.66;99178.09;224726;1283;23003;-73
2023/04/28 04:03:25;;;;;;;61.40;38.50;;;;;;;2.01;76.63;99180.08;224797;1283;22668;-72
2023/04/28 04:08:29;;;;;;;56.40;37.50;;;;;;;2.15;76.27;99183.09;224871;1283;22537;-73
2023/04/28 04:13:34;;;;;;;57.00;34.40;;;;;;;2.31;76.18;99186.02;224776;1280;22566;-74
2023/04/28 04:18:38;;;;;;;53.30;35.50;;;;;;;2.52;76.58;99191.41;224751;1283;22554;-73
2023/04/28 04:23:53;;;;;;;51.20;32.80;;;;;;;2.78;76.24;99189.84;224749;1281;22544;-75
2023/04/28 04:28:55;;;;;;;54.20;33.80;;;;;;;3.09;76.45;99195.20;224782;1280;22533;-73
2023/04/28 04:33:58;;;;;;;51.70;31.40;;;;;;;3.43;76.29;99200.45;224784;1282;22541;-73
2023/04/28 04:39:01;;;;;;;48.10;32.10;;;;;;;3.77;76.04;99199.94;224830;1283;22543;-73
2023/04/28 04:44:03;;;;;;;50.00;31.50;;;;;;;4.09;75.73;99203.56;224752;1281;22532;-73
2023/04/28 04:49:09;;;;;;;48.20;30.70;;;;;;;4.37;75.33;99201.86;224802;1277;22645;-74
2023/04/28 04:54:11;;;;;;;43.30;29.10;;;;;;;4.63;75.20;99199.36;224763;1281;22534;-73
2023/04/28 04:59:14;;;;;;;49.40;30.00;;;;;;;4.82;74.61;99197.81;224755;1282;22554;-74
2023/04/28 05:04:21;;;;;;;48.10;29.40;;;;;;;4.85;73.86;99195.41;224699;1283;22565;-74
2023/04/28 05:09:24;;;;;;;50.00;31.10;;;;;;;4.84;73.65;99192.16;224763;1283;22529;-74
2023/04/28 05:14:27;;;;;;;49.80;32.60;;;;;;;4.88;73.37;99190.73;224853;1280;22580;-73
2023/04/28 05:19:29;;;;;;;49.90;33.00;;;;;;;5.00;73.40;99196.32;224825;1280;22538;-74
2023/04/28 05:24:31;;;;;;;51.60;34.20;;;;;;;5.13;73.27;99192.09;224841;1283;22565;-74
2023/04/28 05:29:33;;;;;;;50.10;33.20;;;;;;;5.29;73.29;99193.04;224820;1277;25525;-74
2023/04/28 05:34:35;;;;;;;51.40;33.40;;;;;;;5.43;73.07;99196.39;224857;1281;22535;-73
2023/04/28 05:39:37;;;;;;;49.30;32.10;;;;;;;5.56;72.88;99200.96;224786;1283;22571;-74
2023/04/28 05:44:40;;;;;;;54.70;34.40;;;;;;;5.70;72.57;99201.65;224652;1260;25540;-74
2023/04/28 05:49:44;;;;;;;53.50;35.10;;;;;;;5.97;73.13;99196.17;224720;1280;22523;-73
2023/04/28 05:54:46;;;;;;;50.70;34.50;;;;;;;6.32;73.58;99193.02;224599;1277;22537;-74
2023/04/28 05:59:48;;;;;;;52.60;33.90;;;;;;;6.62;73.04;99191.84;224321;1260;22537;-72
2023/04/28 06:04:50;;;;;;;52.00;34.10;;;;;;;6.88;72.80;99190.42;224301;1263;22530;-74
2023/04/28 06:09:53;;;;;;;49.80;32.30;;;;;;;7.17;73.00;99188.33;224258;1260;22561;-74
2023/04/28 06:14:56;;;;;;;42.60;28.30;;;;;;;7.53;72.43;99193.69;224231;1266;138672;-74
2023/04/28 06:20:00;;;;;;;46.50;32.00;;;;;;;7.91;71.52;99196.23;224151;1267;139082;-74
2023/04/28 06:25:02;;;;;;;43.30;29.20;;;;;;;8.28;71.69;99191.13;223988;1268;140052;-74
2023/04/28 06:30:18;;;;;;;45.50;33.70;;;;;;;8.64;71.13;99181.11;224304;1261;139131;-74
2023/04/28 06:35:21;;;;;;;36.40;24.00;;;;;;;8.91;70.48;99182.83;224177;1268;23952;-74
2023/04/28 06:40:23;;;;;;;21.30;15.10;;;;;;;9.19;70.08;99179.23;224299;1280;140433;-74
2023/04/28 06:45:29;;;;;;;22.30;14.70;;;;;;;9.47;68.47;99176.03;224310;1260;138536;-74
2023/04/28 06:50:30;;;;;;;24.50;15.50;;;;;;;9.75;67.55;99174.89;224296;1262;138687;-75
2023/04/28 06:55:34;;;;;;;24.50;15.20;;;;;;;10.02;66.64;99168.59;224144;1268;138623;-75
2023/04/28 07:00:36;;;;;;;21.40;13.70;;;;;;;10.26;65.89;99159.34;224194;1270;139242;-75
2023/04/28 07:05:38;;;;;;;22.00;14.30;;;;;;;10.50;65.01;99149.15;224260;1264;137490;-75
2023/04/28 07:10:40;;;;;;;21.00;13.40;;;;;;;10.73;64.50;99140.86;224358;1263;22588;-74
2023/04/28 07:15:42;;;;;;;15.30;11.50;;;;;;;10.97;63.60;99137.96;224167;1276;138297;-75
2023/04/28 07:20:44;;;;;;;17.20;10.00;;;;;;;11.18;63.07;99135.20;224129;1277;138544;-75
2023/04/28 07:25:46;;;;;;;17.80;10.90;;;;;;;11.42;61.87;99133.16;224242;1262;138723;-75
2023/04/28 07:30:49;;;;;;;17.20;11.20;;;;;;;11.66;61.74;99132.23;224208;1273;138954;-76
2023/04/28 07:35:51;;;;;;;16.00;10.50;;;;;;;11.93;61.35;99126.77;224455;1264;138646;-76
2023/04/28 07:40:54;;;;;;;15.50;8.90;;;;;;;12.13;60.25;99127.46;224439;1276;22547;-76
2023/04/28 07:45:56;;;;;;;11.80;7.80;;;;;;;12.18;58.58;99122.43;224214;1261;138177;-77
2023/04/28 07:50:58;;;;;;;11.20;8.50;;;;;;;12.30;58.75;99120.39;224324;1273;139199;-77
2023/04/28 07:56:00;;;;;;;12.30;8.20;;;;;;;12.46;57.99;99114.50;224251;1265;138457;-77
2023/04/28 08:01:02;;;;;;;13.00;7.80;;;;;;;12.62;57.65;99109.41;224265;1261;138474;-72
2023/04/28 08:06:05;;;;;;;16.40;7.60;;;;;;;12.70;56.28;99112.48;224240;1270;138886;-73
2023/04/28 08:11:08;;;;;;;8.80;5.50;;;;;;;12.88;57.04;99109.01;224491;1280;22690;-72
2023/04/28 08:16:10;;;;;;;12.90;6.20;;;;;;;13.16;56.38;99108.37;224370;1268;138771;-73
2023/04/28 08:21:12;;;;;;;9.60;5.90;;;;;;;13.43;55.94;99106.39;224308;1274;138162;-72
2023/04/28 08:26:14;;;;;;;6.90;5.40;;;;;;;13.58;54.53;99099.98;224342;1280;139399;-73
2023/04/28 08:31:16;;;;;;;8.00;5.60;;;;;;;13.64;53.65;99096.14;224461;1278;138217;-73
2023/04/28 08:36:18;;;;;;;7.40;5.80;;;;;;;13.84;54.16;99088.35;224412;1261;139171;-73
2023/04/28 08:41:21;;;;;;;9.30;4.30;;;;;;;14.08;53.80;99085.30;224604;1283;22577;-73
2023/04/28 08:46:26;;;;;;;9.10;4.40;;;;;;;14.23;52.37;99076.66;224481;1277;138184;-74
2023/04/28 08:51:43;;;;;;;12.20;4.30;;;;;;;14.27;51.61;99070.56;224327;1282;139155;-73
2023/04/28 08:56:46;;;;;;;17.60;5.40;;;;;;;14.44;51.44;99069.38;224461;1277;138841;-73
2023/04/28 09:01:49;;;;;;;7.80;4.10;;;;;;;14.57;51.11;99066.12;224406;1267;139610;-73
2023/04/28 09:06:51;;;;;;;7.70;4.40;;;;;;;14.76;51.13;99061.63;224337;1280;138416;-73
2023/04/28 09:12:01;;;;;;;9.60;4.20;;;;;;;14.83;50.48;99060.34;224460;1283;138696;-73
2023/04/28 09:17:12;;;;;;;8.40;4.30;;;;;;;15.01;50.87;99056.38;224508;1277;22537;-73
2023/04/28 09:22:14;;;;;;;7.20;5.30;;;;;;;15.07;49.50;99053.11;224473;1272;138189;-73
2023/04/28 09:27:28;;;;;;;7.10;4.40;;;;;;;15.04;49.17;99047.42;224438;1277;138101;-74
2023/04/28 09:32:30;;;;;;;7.70;4.90;;;;;;;15.00;48.72;99044.29;224291;1264;139606;-74
2023/04/28 09:37:33;;;;;;;8.60;4.80;;;;;;;15.06;48.83;99039.61;224210;1261;138731;-74
2023/04/28 09:42:39;;;;;;;8.40;4.20;;;;;;;15.17;49.19;99027.69;224345;1280;138841;-72
2023/04/28 09:47:45;;;;;;;8.50;5.20;;;;;;;15.30;48.67;99027.26;224455;1283;139216;-73
2023/04/28 09:52:57;;;;;;;8.20;5.10;;;;;;;15.36;48.43;99018.30;224522;1273;22564;-74
2023/04/28 09:58:05;;;;;;;10.30;5.80;;;;;;;15.37;48.04;99009.48;224355;1262;137853;-75
2023/04/28 10:03:09;;;;;;;7.70;4.90;;;;;;;15.54;49.03;99000.51;224300;1283;138490;-75
2023/04/28 10:08:12;;;;;;;11.70;5.20;;;;;;;15.75;48.68;98993.10;224364;1283;138284;-76
2023/04/28 10:13:18;;;;;;;8.10;4.60;;;;;;;15.94;47.94;98989.02;224342;1277;138322;-76
2023/04/28 10:18:23;;;;;;;9.20;4.20;;;;;;;16.09;47.89;98977.45;224365;1277;138214;-75
2023/04/28 10:24:03;;;;;;;7.90;4.40;;;;;;;16.31;46.95;98978.65;224275;1262;256380;-75
2023/04/28 10:29:07;;;;;;;7.30;4.30;;;;;;;16.18;46.57;98965.11;224504;1277;22547;-74
2023/04/28 10:34:22;;;;;;;9.50;3.90;;;;;;;16.25;47.00;98957.33;224291;1277;137841;-74
2023/04/28 10:39:24;;;;;;;6.10;3.30;;;;;;;16.48;47.03;98953.40;223984;1283;138425;-75
2023/04/28 10:44:29;;;;;;;9.70;4.00;;;;;;;16.68;46.63;98945.86;224107;1276;138840;-74
2023/04/28 10:50:00;;;;;;;9.60;4.20;;;;;;;16.69;46.40;98939.24;224408;1283;138437;-73
2023/04/28 10:55:35;;;;;;;7.60;3.60;;;;;;;16.95;45.99;98924.77;224415;1283;138738;-74
2023/04/28 11:00:38;;;;;;;5.80;3.70;;;;;;;17.24;46.08;98918.23;224441;1281;139715;-73
2023/04/28 11:06:28;;;;;;;17.60;5.10;;;;;;;17.33;45.90;98910.92;224320;1281;138476;-74
2023/04/28 11:11:33;;;;;;;9.60;4.50;;;;;;;17.38;45.29;98907.34;224528;1281;22616;-78
2023/04/28 11:17:26;;;;;;;4.90;3.40;;;;;;;17.31;44.28;98904.38;224546;1280;23299;-75
2023/04/28 11:22:30;;;;;;;5.40;3.50;;;;;;;17.38;44.85;98889.48;223591;1267;139219;-76
2023/04/28 11:27:33;;;;;;;9.00;4.00;;;;;;;17.64;44.65;98889.98;224255;1273;138426;-75
2023/04/28 11:32:35;;;;;;;6.60;3.80;;;;;;;17.78;43.51;98885.13;224318;1277;138375;-76
2023/04/28 11:37:37;;;;;;;23.50;5.40;;;;;;;17.63;43.61;98883.58;224419;1278;138388;-76
2023/04/28 11:42:47;;;;;;;6.00;3.90;;;;;;;17.70;43.96;98881.56;224320;1277;138514;-76
2023/04/28 11:47:49;;;;;;;5.90;3.60;;;;;;;17.72;42.94;98875.64;224284;1260;138398;-75
2023/04/28 11:52:51;;;;;;;5.20;3.20;;;;;;;17.79;43.45;98874.73;224489;1278;22671;-76
2023/04/28 11:58:17;;;;;;;5.20;3.50;;;;;;;17.90;42.90;98870.52;224419;1280;137861;-76
2023/04/28 12:03:19;;;;;;;6.30;3.70;;;;;;;17.57;42.09;98867.57;224410;1277;139286;-75
2023/04/28 12:08:28;;;;;;;5.30;3.90;;;;;;;17.33;42.45;98858.52;224404;1265;139305;-76
2023/04/28 12:13:30;;;;;;;7.00;3.60;;;;;;;17.27;42.59;98844.65;224263;1278;138133;-76
2023/04/28 12:18:35;;;;;;;6.40;3.80;;;;;;;17.41;43.06;98840.83;224240;1264;139534;-76
2023/04/28 12:23:38;;;;;;;5.70;4.00;;;;;;;17.57;42.73;98832.93;224320;1278;138428;-74
2023/04/28 12:28:40;;;;;;;12.40;4.20;;;;;;;17.53;42.69;98820.05;224412;1281;22529;-74
2023/04/28 12:33:43;;;;;;;7.70;3.60;;;;;;;17.68;43.49;98814.21;224376;1278;138377;-74
2023/04/28 12:38:48;;;;;;;7.50;3.50;;;;;;;18.03;43.20;98813.94;224504;1264;138284;-74
2023/04/28 12:43:50;;;;;;;5.70;4.10;;;;;;;18.30;42.65;98808.83;224354;1280;138273;-75
2023/04/28 12:48:52;;;;;;;5.50;4.00;;;;;;;18.34;42.04;98805.17;224352;1261;138482;-75
2023/04/28 12:53:55;;;;;;;17.70;4.70;;;;;;;18.25;42.61;98795.84;224225;1278;140597;-74
2023/04/28 12:58:57;;;;;;;5.60;3.20;;;;;;;18.20;43.03;98789.59;224349;1265;27692;-76
2023/04/28 13:03:59;;;;;;;8.60;4.00;;;;;;;18.42;43.71;98782.57;224265;1275;139010;-81
2023/04/28 13:09:02;;;;;;;4.10;3.10;;;;;;;18.59;42.59;98777.58;224314;1271;138295;-80
2023/04/28 13:14:05;;;;;;;5.40;3.50;;;;;;;18.48;42.46;98766.16;224292;1265;138344;-79
2023/04/28 13:19:09;;;;;;;6.00;3.30;;;;;;;18.50;42.88;98759.13;224378;1283;138428;-80
2023/04/28 13:24:15;;;;;;;5.20;3.20;;;;;;;18.59;42.87;98758.82;224441;1281;138136;-78
2023/04/28 13:29:17;;;;;;;5.20;3.10;;;;;;;18.67;42.97;98760.02;224455;1262;22553;-78
2023/04/28 13:34:19;;;;;;;5.30;3.00;;;;;;;18.80;42.88;98754.88;224314;1264;138568;-78
2023/04/28 13:39:22;;;;;;;7.70;3.90;;;;;;;18.95;42.39;98746.75;224316;1270;138000;-76
2023/04/28 13:44:24;;;;;;;5.10;3.30;;;;;;;18.82;42.24;98740.77;224223;1274;138578;-76
2023/04/28 13:49:26;;;;;;;6.50;3.20;;;;;;;18.79;42.43;98738.73;224435;1278;138228;-80
2023/04/28 13:54:29;;;;;;;5.90;3.30;;;;;;;19.05;43.01;98731.79;224318;1264;138189;-80
2023/04/28 13:59:33;;;;;;;6.00;3.00;;;;;;;19.24;42.08;98735.20;224314;1277;22647;-79
2023/04/28 14:04:36;;;;;;;4.30;2.80;;;;;;;19.51;41.87;98730.23;225428;1281;22546;-81
2023/04/28 14:09:39;;;;;;;4.60;2.70;;;;;;;19.69;40.98;98723.74;224519;1283;22580;-82
2023/04/28 14:14:42;;;;;;;4.10;2.80;;;;;;;19.55;40.62;98719.00;224716;1284;22596;-81
2023/04/28 14:19:45;;;;;;;4.20;2.50;;;;;;;19.44;40.43;98714.37;224662;1281;22558;-81
2023/04/28 14:24:47;;;;;;;4.20;2.80;;;;;;;19.39;40.20;98709.33;224678;1284;22542;-81
2023/04/28 14:29:50;;;;;;;5.00;2.40;;;;;;;19.48;40.70;98704.94;224784;1284;22565;-81
2023/04/28 14:34:53;;;;;;;4.80;2.80;;;;;;;19.42;40.64;98702.14;224750;1283;22586;-82
2023/04/28 14:39:56;;;;;;;5.40;3.40;;;;;;;19.30;40.45;98698.47;224745;1284;22535;-82
2023/04/28 14:44:58;;;;;;;7.30;6.00;;;;;;;19.03;40.53;98696.58;224929;1280;24161;-81
2023/04/28 14:50:00;;;;;;;3.60;2.50;;;;;;;18.85;40.23;98699.38;224799;1281;22550;-82
2023/04/28 14:55:04;;;;;;;4.80;2.30;;;;;;;18.59;40.36;98690.97;224785;1283;23584;-81
2023/04/28 15:00:06;;;;;;;3.00;2.10;;;;;;;18.54;40.90;98686.54;224646;1281;22527;-82
2023/04/28 15:05:10;;;;;;;5.80;2.20;;;;;;;18.56;40.78;98683.61;224702;1283;24224;-81
2023/04/28 15:10:12;;;;;;;3.00;2.60;;;;;;;18.49;40.78;98680.66;224780;1284;22532;-82
2023/04/28 15:15:14;;;;;;;5.60;2.70;;;;;;;18.33;40.69;98677.10;224756;1284;22653;-83
2023/04/28 15:20:16;;;;;;;3.60;2.30;;;;;;;18.26;41.43;98677.09;224796;1281;23311;-80
2023/04/28 15:25:18;;;;;;;4.80;2.80;;;;;;;18.27;41.49;98672.57;224810;1283;22554;-81
2023/04/28 15:30:20;;;;;;;4.00;2.50;;;;;;;18.23;41.52;98671.22;224770;1283;22569;-80
2023/04/28 15:35:23;;;;;;;5.60;2.60;;;;;;;18.14;41.77;98661.96;224790;1283;26979;-81
2023/04/28 15:40:25;;;;;;;3.90;2.60;;;;;;;18.18;41.97;98653.00;224815;1281;22649;-81
2023/04/28 15:45:27;;;;;;;3.70;2.30;;;;;;;18.12;41.58;98647.30;224752;1283;22587;-81
2023/04/28 15:50:29;;;;;;;4.10;2.30;;;;;;;18.03;41.81;98650.95;224748;1283;24241;-80
2023/04/28 15:55:31;;;;;;;5.40;2.40;;;;;;;18.03;42.38;98646.06;224772;1284;22550;-81
2023/04/28 16:00:33;;;;;;;4.40;2.40;;;;;;;17.97;42.14;98638.77;224781;1261;22532;-81
2023/04/28 16:05:37;;;;;;;3.40;2.40;;;;;;;17.85;42.58;98639.86;224703;1284;24229;-82
2023/04/28 16:10:41;;;;;;;4.00;2.80;;;;;;;17.72;42.76;98646.34;224763;1283;22534;-81
2023/04/28 16:15:44;;;;;;;3.90;2.60;;;;;;;17.54;43.41;98640.84;224750;1283;26493;-81
2023/04/28 16:20:46;;;;;;;4.50;2.60;;;;;;;17.46;43.85;98635.42;224838;1280;22539;-82
2023/04/28 16:25:49;;;;;;;5.70;2.70;;;;;;;17.38;44.31;98628.66;224812;1284;22529;-80
2023/04/28 16:30:52;;;;;;;5.10;2.60;;;;;;;17.28;44.57;98634.23;224736;1284;22530;-81
2023/04/28 16:35:58;;;;;;;4.90;2.90;;;;;;;17.11;44.82;98634.60;224793;1284;22533;-81
2023/04/28 16:41:01;;;;;;;5.50;3.10;;;;;;;16.87;45.23;98634.08;224714;1284;22537;-80
2023/04/28 16:46:04;;;;;;;4.90;3.10;;;;;;;16.60;45.53;98628.89;224720;1284;22676;-80
2023/04/28 16:51:08;;;;;;;5.00;3.20;;;;;;;16.36;45.91;98624.92;224617;1284;24275;-79
2023/04/28 16:56:10;;;;;;;5.40;2.90;;;;;;;16.10;46.30;98630.98;224702;1280;22540;-80
2023/04/28 17:01:12;;;;;;;5.50;2.50;;;;;;;15.90;46.65;98627.27;224747;1283;22547;-80
2023/04/28 17:06:16;;;;;;;4.50;2.70;;;;;;;15.72;46.83;98635.02;224660;1277;22578;-79
2023/04/28 17:11:19;;;;;;;3.80;2.70;;;;;;;15.51;47.20;98632.30;224620;1283;22537;-80
2023/04/28 17:16:21;;;;;;;4.60;2.80;;;;;;;15.32;47.14;98628.58;224734;1283;22571;-80
2023/04/28 17:21:25;;;;;;;4.90;2.80;;;;;;;15.12;47.21;98631.13;224838;1284;24223;-79
2023/04/28 17:26:32;;;;;;;6.20;2.60;;;;;;;14.94;47.54;98629.95;224548;1283;22566;-80
2023/04/28 17:31:34;;;;;;;5.20;3.30;;;;;;;14.77;47.78;98633.15;224808;1280;22491;-81
2023/04/28 17:36:40;;;;;;;8.50;3.60;;;;;;;14.61;48.21;98635.21;224803;1281;22571;-80
2023/04/28 17:41:43;;;;;;;4.30;3.10;;;;;;;14.46;48.40;98631.40;224819;1283;23075;-80
2023/04/28 17:46:46;;;;;;;4.60;3.20;;;;;;;14.33;48.78;98633.52;224847;1283;24984;-80
2023/04/28 17:51:48;;;;;;;5.80;3.20;;;;;;;14.19;48.95;98632.58;224842;1281;22577;-82
2023/04/28 17:56:51;;;;;;;5.40;3.20;;;;;;;14.02;49.36;98630.08;224883;1281;22553;-79
2023/04/28 18:01:55;;;;;;;7.00;3.40;;;;;;;13.84;49.66;98634.42;224898;1281;22543;-80
2023/04/28 18:06:57;;;;;;;4.30;3.20;;;;;;;13.66;49.83;98631.61;224845;1282;22546;-80
2023/04/28 18:12:01;;;;;;;6.40;3.40;;;;;;;13.49;50.30;98633.81;224830;1283;22549;-80
2023/04/28 18:17:03;;;;;;;7.90;3.80;;;;;;;13.33;50.41;98632.27;224864;1281;22561;-80
2023/04/28 18:22:05;;;;;;;5.80;3.30;;;;;;;13.18;50.61;98635.58;224874;1260;22542;-80
2023/04/28 18:27:08;;;;;;;5.50;3.30;;;;;;;13.03;50.90;98634.94;224872;1283;22540;-79
2023/04/28 18:32:10;;;;;;;6.30;3.50;;;;;;;12.89;51.25;98640.01;224831;1281;22530;-80
2023/04/28 18:37:16;;;;;;;5.70;3.90;;;;;;;12.77;51.49;98643.00;224862;1274;22581;-80
2023/04/28 18:42:18;;;;;;;6.70;4.10;;;;;;;12.62;51.73;98644.64;224860;1283;22572;-81
2023/04/28 18:47:21;;;;;;;7.20;4.10;;;;;;;12.49;51.96;98648.95;224826;1284;23814;-80
2023/04/28 18:52:24;;;;;;;5.80;4.00;;;;;;;12.35;52.32;98650.58;224791;1282;25245;-80
2023/04/28 18:57:26;;;;;;;7.60;4.20;;;;;;;12.22;52.44;98649.05;224792;1282;22558;-79
2023/04/28 19:02:28;;;;;;;7.20;4.10;;;;;;;12.12;52.68;98652.59;224803;1281;22551;-80
2023/04/28 19:07:31;;;;;;;6.90;4.20;;;;;;;12.00;52.79;98652.89;224783;1273;22548;-81
2023/04/28 19:12:35;;;;;;;6.30;4.20;;;;;;;11.87;52.98;98652.56;224825;1281;23044;-79
2023/04/28 19:17:39;;;;;;;7.90;5.10;;;;;;;11.70;53.16;98655.38;224800;1281;22572;-80
2023/04/28 19:22:42;;;;;;;12.10;5.80;;;;;;;11.56;53.70;98656.66;224741;1278;22945;-80
2023/04/28 19:27:45;;;;;;;13.20;7.80;;;;;;;11.44;54.12;98657.54;224854;1277;22568;-80
2023/04/28 19:32:47;;;;;;;20.40;11.00;;;;;;;11.31;54.45;98648.80;224829;1283;22534;-80
2023/04/28 19:37:49;;;;;;;18.10;10.90;;;;;;;11.20;54.60;98643.98;224764;1282;24243;-79
2023/04/28 19:42:51;;;;;;;17.00;10.40;;;;;;;11.10;55.02;98642.80;224766;1284;22832;-78
2023/04/28 19:47:54;;;;;;;16.80;10.00;;;;;;;11.01;55.13;98643.91;224822;1281;22694;-81
2023/04/28 19:52:56;;;;;;;18.20;10.60;;;;;;;10.90;55.45;98639.54;224770;1284;24207;-79
2023/04/28 19:57:59;;;;;;;16.70;9.90;;;;;;;10.80;55.66;98639.30;224773;1281;24269;-80
2023/04/28 20:03:02;;;;;;;16.50;10.50;;;;;;;10.69;55.91;98637.67;224777;1283;22542;-80
2023/04/28 20:08:05;;;;;;;18.20;11.40;;;;;;;10.57;56.02;98626.13;224732;1279;22483;-80
2023/04/28 20:13:08;;;;;;;19.10;11.20;;;;;;;10.47;56.39;98624.41;224757;1284;22535;-79
2023/04/28 20:18:10;;;;;;;16.80;11.70;;;;;;;10.41;56.57;98623.30;224796;1282;22558;-80
2023/04/28 20:23:12;;;;;;;19.80;11.60;;;;;;;10.36;56.84;98624.13;224737;1282;22529;-80
2023/04/28 20:28:15;;;;;;;17.40;11.00;;;;;;;10.32;56.80;98627.90;224683;1280;25278;-80
2023/04/28 20:33:17;;;;;;;19.30;11.70;;;;;;;10.27;57.15;98631.19;224764;1284;22531;-78
2023/04/28 20:38:19;;;;;;;17.60;12.10;;;;;;;10.17;57.43;98627.55;224768;1284;22537;-79
2023/04/28 20:43:22;;;;;;;19.40;12.30;;;;;;;10.07;57.55;98629.55;224787;1284;22548;-79
2023/04/28 20:48:25;;;;;;;23.40;14.30;;;;;;;9.95;57.90;98631.70;224781;1276;22545;-80
2023/04/28 20:53:27;;;;;;;23.90;14.40;;;;;;;9.83;57.89;98629.55;224665;1284;25300;-79
2023/04/28 20:58:30;;;;;;;26.40;15.50;;;;;;;9.71;58.47;98628.33;224807;1283;22550;-80
2023/04/28 21:03:32;;;;;;;31.60;17.20;;;;;;;9.62;58.71;98623.80;224798;1284;22536;-79
2023/04/28 21:08:39;;;;;;;31.20;18.60;;;;;;;9.53;58.66;98618.38;224808;1280;22617;-79
2023/04/28 21:13:47;;;;;;;31.60;18.00;;;;;;;9.49;59.20;98623.29;224791;1283;22551;-76
2023/04/28 21:18:49;;;;;;;28.90;16.20;;;;;;;9.49;59.15;98624.84;224770;1283;22557;-81
2023/04/28 21:23:52;;;;;;;29.10;16.50;;;;;;;9.48;59.45;98622.65;224756;1283;22551;-78
2023/04/28 21:28:55;;;;;;;28.50;17.90;;;;;;;9.47;60.31;98625.66;224798;1283;22528;-79
2023/04/28 21:33:57;;;;;;;29.70;17.80;;;;;;;9.43;60.39;98620.98;224830;1283;23019;-79
2023/04/28 21:39:03;;;;;;;33.10;20.40;;;;;;;9.40;60.70;98622.44;224808;1280;22633;-78
2023/04/28 21:44:09;;;;;;;35.70;21.60;;;;;;;9.37;61.04;98619.41;224792;1280;24286;-78
2023/04/28 21:49:13;;;;;;;35.20;21.10;;;;;;;9.35;61.27;98613.70;224753;1283;22577;-80
2023/04/28 21:54:15;;;;;;;34.60;20.70;;;;;;;9.34;61.60;98611.03;224685;1280;22552;-79
2023/04/28 21:59:17;;;;;;;31.50;19.20;;;;;;;9.34;61.75;98612.24;224777;1283;22573;-78
2023/04/28 22:04:19;;;;;;;34.10;18.30;;;;;;;9.36;61.32;98606.08;224748;1283;22538;-78
2023/04/28 22:09:22;;;;;;;32.20;17.50;;;;;;;9.40;61.71;98608.23;224698;1278;22693;-78
2023/04/28 22:14:25;;;;;;;30.80;19.40;;;;;;;9.44;61.81;98603.68;224725;1284;22536;-79
2023/04/28 22:19:41;;;;;;;30.20;18.00;;;;;;;9.49;62.15;98600.20;224775;1277;22543;-78
2023/04/28 22:24:43;;;;;;;27.60;16.80;;;;;;;9.54;62.12;98592.63;224575;1282;156007;-79
2023/04/28 22:29:46;;;;;;;27.50;17.40;;;;;;;9.59;62.44;98591.11;224745;1284;22553;-80
2023/04/28 22:34:48;;;;;;;30.90;17.80;;;;;;;9.64;62.21;98587.22;224752;1284;22589;-78
2023/04/28 22:39:51;;;;;;;31.10;17.40;;;;;;;9.67;62.12;98580.80;224779;1284;22546;-78
2023/04/28 22:44:53;;;;;;;27.90;16.70;;;;;;;9.71;62.33;98578.49;224751;1284;23264;-78
2023/04/28 22:49:55;;;;;;;28.60;16.60;;;;;;;9.76;62.37;98570.95;224769;1283;24119;-78
2023/04/28 22:54:57;;;;;;;32.40;18.30;;;;;;;9.80;62.10;98570.30;224789;1283;22546;-79
2023/04/28 23:00:00;;;;;;;35.40;19.40;;;;;;;9.82;62.64;98565.89;224781;1283;22558;-78
2023/04/28 23:05:03;;;;;;;33.40;20.30;;;;;;;9.85;62.69;98561.70;224764;1280;22545;-79
2023/04/28 23:10:07;;;;;;;37.90;21.90;;;;;;;9.86;62.68;98564.67;224805;1283;22545;-80
2023/04/28 23:15:10;;;;;;;36.80;20.40;;;;;;;9.88;63.15;98562.58;224841;1276;22560;-79